Main page
METAR-TAF:

METAR-TAF

Airports :

Beja Airbase

Beja, Portugal

latitude: 38-04-40N, longitude: 007-55-57W, elevation: 193 m

Current weather observation

The report was made 47 minutes ago, at 23:00 UTC
Wind 7 kt from the West
Temperature 24°C
Humidity 47%
Pressure 1017 hPa
Visibility 10 km or more
no clouds below 1500 m and no cumulonimbus

METAR: LPBJ 052300Z 28007KT CAVOK 24/12 Q1017

Time: 00:47 (23:47 UTC)

Forecast

The report was made 41 minutes ago, at 23:06 UTC
Forecast valid from 06 at 00 UTC to 06 at 24 UTC
Wind 2 kt from variable directions
Visibility 10 km or more
no clouds below 1500 m and no cumulonimbus
Becoming
from 06 at 14 UTC to 06 at 16 UTC
Wind 10 kt from the West
Temporary
from 06 at 16 UTC to 06 at 19 UTC
Wind 15 kt from the West/Northwest with gusts up to 25 kt
Becoming
from 06 at 20 UTC to 06 at 22 UTC
Wind 2 kt from variable directions

TAF: LPBJ 052306Z 0600/0624 VRB02KT CAVOK BECMG 0614/0616 28010KT TEMPO 0616/0619 29015G25KT BECMG 0620/0622 VRB02KT

Weather observations and forecasts of more than 4000 airports (METAR and TAF reports).

The available stations are represented by yellow and red dots on the map.

Hover mouse over dot to see the name of the station.

Then click to see weather observations and forecasts.

To change the map : click on the green buttons with a black cross to zoom in, on the green button with a dash to zoom out, or on the green arrows for adjacent maps.


METAR-TAF: